sensor_id;sensor_type;location;lat;lon;timestamp;temperature;humidity
55785;DHT22;41709;52.536;5.688;2022-12-07T00:01:38;4.20;91.20
55785;DHT22;41709;52.536;5.688;2022-12-07T00:04:05;4.20;91.40
55785;DHT22;41709;52.536;5.688;2022-12-07T00:06:36;4.20;91.40
55785;DHT22;41709;52.536;5.688;2022-12-07T00:09:03;4.10;91.40
55785;DHT22;41709;52.536;5.688;2022-12-07T00:11:30;4.10;91.60
55785;DHT22;41709;52.536;5.688;2022-12-07T00:13:58;4.10;91.80
55785;DHT22;41709;52.536;5.688;2022-12-07T00:16:26;4.20;91.70
55785;DHT22;41709;52.536;5.688;2022-12-07T00:18:52;4.20;91.60
55785;DHT22;41709;52.536;5.688;2022-12-07T00:21:20;4.20;91.40
55785;DHT22;41709;52.536;5.688;2022-12-07T00:23:47;4.20;91.30
55785;DHT22;41709;52.536;5.688;2022-12-07T00:26:24;4.20;91.30
55785;DHT22;41709;52.536;5.688;2022-12-07T00:28:56;4.20;91.20
55785;DHT22;41709;52.536;5.688;2022-12-07T00:31:24;4.20;91.30
55785;DHT22;41709;52.536;5.688;2022-12-07T00:33:51;4.20;91.40
55785;DHT22;41709;52.536;5.688;2022-12-07T00:36:19;4.30;91.50
55785;DHT22;41709;52.536;5.688;2022-12-07T00:38:45;4.30;91.50
55785;DHT22;41709;52.536;5.688;2022-12-07T00:41:14;4.30;91.60
55785;DHT22;41709;52.536;5.688;2022-12-07T00:43:41;4.30;91.50
55785;DHT22;41709;52.536;5.688;2022-12-07T00:46:07;4.30;91.40
55785;DHT22;41709;52.536;5.688;2022-12-07T00:48:33;4.30;91.30
55785;DHT22;41709;52.536;5.688;2022-12-07T00:50:59;4.40;90.90
55785;DHT22;41709;52.536;5.688;2022-12-07T00:53:25;4.30;90.70
55785;DHT22;41709;52.536;5.688;2022-12-07T00:55:51;4.30;90.60
55785;DHT22;41709;52.536;5.688;2022-12-07T00:58:18;4.30;90.50
55785;DHT22;41709;52.536;5.688;2022-12-07T01:00:43;4.30;90.60
55785;DHT22;41709;52.536;5.688;2022-12-07T01:03:12;4.30;90.70
55785;DHT22;41709;52.536;5.688;2022-12-07T01:05:38;4.30;91.00
55785;DHT22;41709;52.536;5.688;2022-12-07T01:08:04;4.20;91.30
55785;DHT22;41709;52.536;5.688;2022-12-07T01:10:30;4.20;91.30
55785;DHT22;41709;52.536;5.688;2022-12-07T01:12:57;4.30;91.30
55785;DHT22;41709;52.536;5.688;2022-12-07T01:15:22;4.30;91.30
55785;DHT22;41709;52.536;5.688;2022-12-07T01:17:48;4.30;91.30
55785;DHT22;41709;52.536;5.688;2022-12-07T01:20:14;4.40;91.20
55785;DHT22;41709;52.536;5.688;2022-12-07T01:22:41;4.40;91.30
55785;DHT22;41709;52.536;5.688;2022-12-07T01:25:08;4.40;91.40
55785;DHT22;41709;52.536;5.688;2022-12-07T01:27:34;4.40;91.30
55785;DHT22;41709;52.536;5.688;2022-12-07T01:30:01;4.40;91.10
55785;DHT22;41709;52.536;5.688;2022-12-07T01:32:27;4.40;90.80
55785;DHT22;41709;52.536;5.688;2022-12-07T01:34:52;4.40;90.70
55785;DHT22;41709;52.536;5.688;2022-12-07T01:37:18;4.40;90.70
55785;DHT22;41709;52.536;5.688;2022-12-07T01:39:44;4.40;90.60
55785;DHT22;41709;52.536;5.688;2022-12-07T01:42:10;4.40;90.60
55785;DHT22;41709;52.536;5.688;2022-12-07T01:45:25;4.40;90.70
55785;DHT22;41709;52.536;5.688;2022-12-07T01:47:57;4.40;90.80
55785;DHT22;41709;52.536;5.688;2022-12-07T01:50:26;4.40;90.80
55785;DHT22;41709;52.536;5.688;2022-12-07T01:52:55;4.40;90.90
55785;DHT22;41709;52.536;5.688;2022-12-07T01:55:22;4.30;91.10
55785;DHT22;41709;52.536;5.688;2022-12-07T01:57:50;4.40;91.30
55785;DHT22;41709;52.536;5.688;2022-12-07T02:00:17;4.40;91.30
55785;DHT22;41709;52.536;5.688;2022-12-07T02:02:54;4.50;91.30
55785;DHT22;41709;52.536;5.688;2022-12-07T02:05:22;4.50;91.30
55785;DHT22;41709;52.536;5.688;2022-12-07T02:07:49;4.50;91.50
55785;DHT22;41709;52.536;5.688;2022-12-07T02:10:23;4.50;91.40
55785;DHT22;41709;52.536;5.688;2022-12-07T02:12:54;4.50;91.30
55785;DHT22;41709;52.536;5.688;2022-12-07T02:15:22;4.60;91.10
55785;DHT22;41709;52.536;5.688;2022-12-07T02:18:07;4.60;91.20
55785;DHT22;41709;52.536;5.688;2022-12-07T02:23:31;4.80;90.20
55785;DHT22;41709;52.536;5.688;2022-12-07T02:31:28;4.90;89.50
55785;DHT22;41709;52.536;5.688;2022-12-07T02:34:04;4.90;89.60
55785;DHT22;41709;52.536;5.688;2022-12-07T02:36:38;4.90;89.50
55785;DHT22;41709;52.536;5.688;2022-12-07T02:41:37;4.80;89.60
55785;DHT22;41709;52.536;5.688;2022-12-07T02:44:09;4.80;89.50
55785;DHT22;41709;52.536;5.688;2022-12-07T02:46:46;4.80;89.20
55785;DHT22;41709;52.536;5.688;2022-12-07T02:49:35;4.80;88.70
55785;DHT22;41709;52.536;5.688;2022-12-07T02:52:01;4.80;88.20
55785;DHT22;41709;52.536;5.688;2022-12-07T02:54:26;4.80;88.10
55785;DHT22;41709;52.536;5.688;2022-12-07T03:02:38;4.60;88.30
55785;DHT22;41709;52.536;5.688;2022-12-07T03:11:20;4.40;89.00
55785;DHT22;41709;52.536;5.688;2022-12-07T03:13:55;4.40;89.50
55785;DHT22;41709;52.536;5.688;2022-12-07T03:16:28;4.30;89.60
55785;DHT22;41709;52.536;5.688;2022-12-07T03:19:12;4.40;90.00
55785;DHT22;41709;52.536;5.688;2022-12-07T03:21:42;4.30;90.10
55785;DHT22;41709;52.536;5.688;2022-12-07T03:24:22;4.30;90.20
55785;DHT22;41709;52.536;5.688;2022-12-07T03:27:03;4.30;90.30
55785;DHT22;41709;52.536;5.688;2022-12-07T03:29:47;4.40;90.30
55785;DHT22;41709;52.536;5.688;2022-12-07T03:32:24;4.30;90.30
55785;DHT22;41709;52.536;5.688;2022-12-07T03:37:41;4.40;90.10
55785;DHT22;41709;52.536;5.688;2022-12-07T03:40:32;4.40;90.00
55785;DHT22;41709;52.536;5.688;2022-12-07T03:42:59;4.30;89.90
55785;DHT22;41709;52.536;5.688;2022-12-07T03:45:38;4.30;89.90
55785;DHT22;41709;52.536;5.688;2022-12-07T03:48:07;4.30;89.40
55785;DHT22;41709;52.536;5.688;2022-12-07T03:50:45;4.20;89.50
55785;DHT22;41709;52.536;5.688;2022-12-07T03:53:37;4.20;89.70
55785;DHT22;41709;52.536;5.688;2022-12-07T03:56:04;4.20;90.30
55785;DHT22;41709;52.536;5.688;2022-12-07T03:58:31;4.20;90.10
55785;DHT22;41709;52.536;5.688;2022-12-07T04:00:57;4.10;90.00
55785;DHT22;41709;52.536;5.688;2022-12-07T04:03:23;4.10;89.80
55785;DHT22;41709;52.536;5.688;2022-12-07T04:05:49;4.10;90.00
55785;DHT22;41709;52.536;5.688;2022-12-07T04:08:14;4.00;90.00
55785;DHT22;41709;52.536;5.688;2022-12-07T04:10:40;4.00;90.10
55785;DHT22;41709;52.536;5.688;2022-12-07T04:13:05;3.90;90.10
55785;DHT22;41709;52.536;5.688;2022-12-07T04:15:31;3.90;90.20
55785;DHT22;41709;52.536;5.688;2022-12-07T04:28:06;3.90;90.40
55785;DHT22;41709;52.536;5.688;2022-12-07T04:30:32;3.90;90.60
55785;DHT22;41709;52.536;5.688;2022-12-07T04:32:57;3.80;90.90
55785;DHT22;41709;52.536;5.688;2022-12-07T04:35:23;3.80;91.10
55785;DHT22;41709;52.536;5.688;2022-12-07T04:37:48;3.90;91.20
55785;DHT22;41709;52.536;5.688;2022-12-07T04:40:14;4.00;91.10
55785;DHT22;41709;52.536;5.688;2022-12-07T04:42:40;4.10;90.90
55785;DHT22;41709;52.536;5.688;2022-12-07T04:45:06;4.10;91.00
55785;DHT22;41709;52.536;5.688;2022-12-07T04:47:32;4.20;90.80
55785;DHT22;41709;52.536;5.688;2022-12-07T04:49:57;4.30;90.50
55785;DHT22;41709;52.536;5.688;2022-12-07T04:52:23;4.20;90.90
55785;DHT22;41709;52.536;5.688;2022-12-07T04:54:48;4.30;90.60
55785;DHT22;41709;52.536;5.688;2022-12-07T04:57:14;4.30;90.70
55785;DHT22;41709;52.536;5.688;2022-12-07T04:59:39;4.40;90.50
55785;DHT22;41709;52.536;5.688;2022-12-07T05:02:05;4.50;90.30
55785;DHT22;41709;52.536;5.688;2022-12-07T05:04:30;4.60;90.10
55785;DHT22;41709;52.536;5.688;2022-12-07T05:06:56;4.70;89.70
55785;DHT22;41709;52.536;5.688;2022-12-07T05:09:21;4.70;89.00
55785;DHT22;41709;52.536;5.688;2022-12-07T05:11:47;4.80;88.60
55785;DHT22;41709;52.536;5.688;2022-12-07T05:14:16;4.90;88.10
55785;DHT22;41709;52.536;5.688;2022-12-07T05:16:42;4.90;87.50
55785;DHT22;41709;52.536;5.688;2022-12-07T05:19:09;5.00;87.00
55785;DHT22;41709;52.536;5.688;2022-12-07T05:21:36;5.00;86.60
55785;DHT22;41709;52.536;5.688;2022-12-07T05:24:01;5.00;86.20
55785;DHT22;41709;52.536;5.688;2022-12-07T05:26:28;4.90;85.80
55785;DHT22;41709;52.536;5.688;2022-12-07T05:28:54;4.90;85.50
55785;DHT22;41709;52.536;5.688;2022-12-07T05:31:21;4.80;85.40
55785;DHT22;41709;52.536;5.688;2022-12-07T05:33:47;4.70;86.00
55785;DHT22;41709;52.536;5.688;2022-12-07T05:36:13;4.70;86.60
55785;DHT22;41709;52.536;5.688;2022-12-07T05:38:38;4.70;86.90
55785;DHT22;41709;52.536;5.688;2022-12-07T05:41:05;4.70;87.00
55785;DHT22;41709;52.536;5.688;2022-12-07T05:43:31;4.70;87.20
55785;DHT22;41709;52.536;5.688;2022-12-07T05:45:57;4.70;87.40
55785;DHT22;41709;52.536;5.688;2022-12-07T05:48:23;4.70;87.30
55785;DHT22;41709;52.536;5.688;2022-12-07T05:50:49;4.70;88.00
55785;DHT22;41709;52.536;5.688;2022-12-07T05:53:15;4.60;88.20
55785;DHT22;41709;52.536;5.688;2022-12-07T05:55:41;4.60;88.20
55785;DHT22;41709;52.536;5.688;2022-12-07T05:58:07;4.60;88.20
55785;DHT22;41709;52.536;5.688;2022-12-07T06:00:57;4.60;88.40
55785;DHT22;41709;52.536;5.688;2022-12-07T06:03:22;4.60;88.50
55785;DHT22;41709;52.536;5.688;2022-12-07T06:05:48;4.50;88.50
55785;DHT22;41709;52.536;5.688;2022-12-07T06:08:14;4.50;88.50
55785;DHT22;41709;52.536;5.688;2022-12-07T06:10:42;4.50;88.80
55785;DHT22;41709;52.536;5.688;2022-12-07T06:13:09;4.40;89.40
55785;DHT22;41709;52.536;5.688;2022-12-07T06:15:37;4.40;89.70
55785;DHT22;41709;52.536;5.688;2022-12-07T06:18:03;4.40;90.10
55785;DHT22;41709;52.536;5.688;2022-12-07T06:20:28;4.40;89.50
55785;DHT22;41709;52.536;5.688;2022-12-07T06:22:54;4.30;89.10
55785;DHT22;41709;52.536;5.688;2022-12-07T06:25:19;4.30;89.00
55785;DHT22;41709;52.536;5.688;2022-12-07T06:27:45;4.30;89.00
55785;DHT22;41709;52.536;5.688;2022-12-07T06:30:11;4.20;88.60
55785;DHT22;41709;52.536;5.688;2022-12-07T06:32:37;4.20;88.60
55785;DHT22;41709;52.536;5.688;2022-12-07T06:35:03;4.10;88.70
55785;DHT22;41709;52.536;5.688;2022-12-07T06:37:29;4.10;88.90
55785;DHT22;41709;52.536;5.688;2022-12-07T06:39:54;4.10;89.40
55785;DHT22;41709;52.536;5.688;2022-12-07T06:42:20;4.00;89.80
55785;DHT22;41709;52.536;5.688;2022-12-07T06:44:45;4.00;90.00
55785;DHT22;41709;52.536;5.688;2022-12-07T06:47:11;4.10;90.00
55785;DHT22;41709;52.536;5.688;2022-12-07T06:49:37;4.00;90.00
55785;DHT22;41709;52.536;5.688;2022-12-07T06:52:03;4.00;90.10
55785;DHT22;41709;52.536;5.688;2022-12-07T06:54:30;3.90;90.40
55785;DHT22;41709;52.536;5.688;2022-12-07T06:56:55;3.90;90.90
55785;DHT22;41709;52.536;5.688;2022-12-07T06:59:21;3.80;91.20
55785;DHT22;41709;52.536;5.688;2022-12-07T07:01:46;3.80;91.30
55785;DHT22;41709;52.536;5.688;2022-12-07T07:04:12;3.90;91.30
55785;DHT22;41709;52.536;5.688;2022-12-07T07:06:38;4.00;91.30
55785;DHT22;41709;52.536;5.688;2022-12-07T07:09:03;4.00;91.20
55785;DHT22;41709;52.536;5.688;2022-12-07T07:11:29;4.10;91.10
55785;DHT22;41709;52.536;5.688;2022-12-07T07:13:54;4.20;91.10
55785;DHT22;41709;52.536;5.688;2022-12-07T07:16:23;4.20;91.00
55785;DHT22;41709;52.536;5.688;2022-12-07T07:18:49;4.30;90.90
55785;DHT22;41709;52.536;5.688;2022-12-07T07:21:15;4.30;90.80
55785;DHT22;41709;52.536;5.688;2022-12-07T07:23:40;4.40;90.70
55785;DHT22;41709;52.536;5.688;2022-12-07T07:26:06;4.50;90.60
55785;DHT22;41709;52.536;5.688;2022-12-07T07:28:31;4.50;90.50
55785;DHT22;41709;52.536;5.688;2022-12-07T07:30:57;4.50;90.30
55785;DHT22;41709;52.536;5.688;2022-12-07T07:33:22;4.60;90.00
55785;DHT22;41709;52.536;5.688;2022-12-07T07:35:48;4.60;90.00
55785;DHT22;41709;52.536;5.688;2022-12-07T07:38:14;4.50;90.00
55785;DHT22;41709;52.536;5.688;2022-12-07T07:40:39;4.50;89.70
55785;DHT22;41709;52.536;5.688;2022-12-07T07:43:05;4.50;89.10
55785;DHT22;41709;52.536;5.688;2022-12-07T07:45:31;4.50;88.80
55785;DHT22;41709;52.536;5.688;2022-12-07T07:47:56;4.50;88.70
55785;DHT22;41709;52.536;5.688;2022-12-07T07:50:22;4.50;89.10
55785;DHT22;41709;52.536;5.688;2022-12-07T07:52:47;4.50;89.20
55785;DHT22;41709;52.536;5.688;2022-12-07T07:55:13;4.50;89.20
55785;DHT22;41709;52.536;5.688;2022-12-07T07:57:39;4.50;89.30
55785;DHT22;41709;52.536;5.688;2022-12-07T08:00:08;4.40;89.20
55785;DHT22;41709;52.536;5.688;2022-12-07T08:02:34;4.40;89.30
55785;DHT22;41709;52.536;5.688;2022-12-07T08:04:59;4.30;89.60
55785;DHT22;41709;52.536;5.688;2022-12-07T08:07:27;4.30;89.90
55785;DHT22;41709;52.536;5.688;2022-12-07T08:09:53;4.20;90.00
55785;DHT22;41709;52.536;5.688;2022-12-07T08:12:18;4.20;90.00
55785;DHT22;41709;52.536;5.688;2022-12-07T08:14:44;4.20;90.00
55785;DHT22;41709;52.536;5.688;2022-12-07T08:17:09;4.10;90.20
55785;DHT22;41709;52.536;5.688;2022-12-07T08:19:35;4.00;90.50
55785;DHT22;41709;52.536;5.688;2022-12-07T08:22:00;4.00;90.90
55785;DHT22;41709;52.536;5.688;2022-12-07T08:24:26;4.00;91.40
55785;DHT22;41709;52.536;5.688;2022-12-07T08:26:52;4.00;91.70
55785;DHT22;41709;52.536;5.688;2022-12-07T08:29:18;4.00;91.80
55785;DHT22;41709;52.536;5.688;2022-12-07T08:31:43;4.00;91.70
55785;DHT22;41709;52.536;5.688;2022-12-07T08:34:13;4.10;91.50
55785;DHT22;41709;52.536;5.688;2022-12-07T08:36:39;4.10;91.30
55785;DHT22;41709;52.536;5.688;2022-12-07T08:39:05;4.20;91.40
55785;DHT22;41709;52.536;5.688;2022-12-07T08:41:31;4.20;91.20
55785;DHT22;41709;52.536;5.688;2022-12-07T08:43:57;4.10;91.10
55785;DHT22;41709;52.536;5.688;2022-12-07T08:49:05;4.10;91.00
55785;DHT22;41709;52.536;5.688;2022-12-07T08:51:32;4.20;91.00
55785;DHT22;41709;52.536;5.688;2022-12-07T08:54:01;4.10;90.80
55785;DHT22;41709;52.536;5.688;2022-12-07T08:56:28;4.10;90.70
55785;DHT22;41709;52.536;5.688;2022-12-07T08:58:54;4.00;90.80
55785;DHT22;41709;52.536;5.688;2022-12-07T09:01:20;4.00;91.00
55785;DHT22;41709;52.536;5.688;2022-12-07T09:03:45;4.00;91.20
55785;DHT22;41709;52.536;5.688;2022-12-07T09:06:11;4.00;91.40
55785;DHT22;41709;52.536;5.688;2022-12-07T09:08:40;4.10;91.60
55785;DHT22;41709;52.536;5.688;2022-12-07T09:11:06;4.10;91.80
55785;DHT22;41709;52.536;5.688;2022-12-07T09:13:32;4.10;92.00
55785;DHT22;41709;52.536;5.688;2022-12-07T09:15:58;4.10;92.10
55785;DHT22;41709;52.536;5.688;2022-12-07T09:18:23;4.20;92.00
55785;DHT22;41709;52.536;5.688;2022-12-07T09:20:50;4.20;91.90
55785;DHT22;41709;52.536;5.688;2022-12-07T09:23:15;4.20;91.80
55785;DHT22;41709;52.536;5.688;2022-12-07T09:25:41;4.10;91.70
55785;DHT22;41709;52.536;5.688;2022-12-07T09:28:07;4.10;91.80
55785;DHT22;41709;52.536;5.688;2022-12-07T09:30:32;4.10;92.00
55785;DHT22;41709;52.536;5.688;2022-12-07T09:32:58;4.10;92.30
55785;DHT22;41709;52.536;5.688;2022-12-07T09:35:25;4.20;92.60
55785;DHT22;41709;52.536;5.688;2022-12-07T09:37:51;4.20;92.80
55785;DHT22;41709;52.536;5.688;2022-12-07T09:40:18;4.30;92.90
55785;DHT22;41709;52.536;5.688;2022-12-07T09:42:48;4.30;92.90
55785;DHT22;41709;52.536;5.688;2022-12-07T09:45:18;4.40;92.80
55785;DHT22;41709;52.536;5.688;2022-12-07T09:47:45;4.40;92.80
55785;DHT22;41709;52.536;5.688;2022-12-07T09:50:20;4.50;92.70
55785;DHT22;41709;52.536;5.688;2022-12-07T09:52:47;4.50;92.70
55785;DHT22;41709;52.536;5.688;2022-12-07T09:55:24;4.50;92.70
55785;DHT22;41709;52.536;5.688;2022-12-07T09:57:50;4.60;92.60
55785;DHT22;41709;52.536;5.688;2022-12-07T10:00:20;4.60;92.60
55785;DHT22;41709;52.536;5.688;2022-12-07T10:02:56;4.70;92.30
55785;DHT22;41709;52.536;5.688;2022-12-07T10:07:51;4.80;91.80
55785;DHT22;41709;52.536;5.688;2022-12-07T10:10:26;4.80;91.50
55785;DHT22;41709;52.536;5.688;2022-12-07T10:15:20;4.70;91.20
55785;DHT22;41709;52.536;5.688;2022-12-07T10:17:51;4.80;91.20
55785;DHT22;41709;52.536;5.688;2022-12-07T10:20:26;4.80;91.10
55785;DHT22;41709;52.536;5.688;2022-12-07T10:23:03;4.80;91.30
55785;DHT22;41709;52.536;5.688;2022-12-07T10:25:37;4.70;91.20
55785;DHT22;41709;52.536;5.688;2022-12-07T10:30:33;4.60;91.10
55785;DHT22;41709;52.536;5.688;2022-12-07T10:32:59;4.60;91.20
55785;DHT22;41709;52.536;5.688;2022-12-07T10:35:27;4.70;91.20
55785;DHT22;41709;52.536;5.688;2022-12-07T10:37:54;4.60;91.20
55785;DHT22;41709;52.536;5.688;2022-12-07T10:40:28;4.70;91.10
55785;DHT22;41709;52.536;5.688;2022-12-07T10:43:20;4.70;91.10
55785;DHT22;41709;52.536;5.688;2022-12-07T10:48:59;4.80;91.00
55785;DHT22;41709;52.536;5.688;2022-12-07T10:51:42;4.90;91.00
55785;DHT22;41709;52.536;5.688;2022-12-07T10:57:04;5.00;90.60
55785;DHT22;41709;52.536;5.688;2022-12-07T11:02:35;5.00;90.50
55785;DHT22;41709;52.536;5.688;2022-12-07T11:07:47;5.20;90.80
55785;DHT22;41709;52.536;5.688;2022-12-07T11:24:18;5.60;87.80
55785;DHT22;41709;52.536;5.688;2022-12-07T11:27:04;5.70;86.60
55785;DHT22;41709;52.536;5.688;2022-12-07T11:29:55;5.70;86.60
55785;DHT22;41709;52.536;5.688;2022-12-07T11:38:11;5.50;86.10
55785;DHT22;41709;52.536;5.688;2022-12-07T11:40:38;5.50;86.90
55785;DHT22;41709;52.536;5.688;2022-12-07T11:43:28;5.60;87.00
55785;DHT22;41709;52.536;5.688;2022-12-07T11:46:08;5.50;87.80
55785;DHT22;41709;52.536;5.688;2022-12-07T11:48:44;5.60;87.70
55785;DHT22;41709;52.536;5.688;2022-12-07T11:51:11;5.60;87.80
55785;DHT22;41709;52.536;5.688;2022-12-07T11:53:44;5.70;88.10
55785;DHT22;41709;52.536;5.688;2022-12-07T11:56:17;5.80;87.20
55785;DHT22;41709;52.536;5.688;2022-12-07T12:04:07;6.00;86.50
55785;DHT22;41709;52.536;5.688;2022-12-07T12:06:41;6.00;86.20
55785;DHT22;41709;52.536;5.688;2022-12-07T12:14:36;6.10;85.60
55785;DHT22;41709;52.536;5.688;2022-12-07T12:23:13;6.30;83.00
55785;DHT22;41709;52.536;5.688;2022-12-07T12:25:45;6.40;82.80
55785;DHT22;41709;52.536;5.688;2022-12-07T12:33:48;6.40;82.60
55785;DHT22;41709;52.536;5.688;2022-12-07T12:47:00;6.50;82.50
55785;DHT22;41709;52.536;5.688;2022-12-07T12:55:11;6.60;81.90
55785;DHT22;41709;52.536;5.688;2022-12-07T12:57:37;6.70;82.30
55785;DHT22;41709;52.536;5.688;2022-12-07T13:00:20;6.70;82.50
55785;DHT22;41709;52.536;5.688;2022-12-07T13:05:26;6.80;82.80
55785;DHT22;41709;52.536;5.688;2022-12-07T13:15:38;6.90;82.10
55785;DHT22;41709;52.536;5.688;2022-12-07T13:20:45;6.70;80.90
55785;DHT22;41709;52.536;5.688;2022-12-07T13:23:12;6.60;80.90
55785;DHT22;41709;52.536;5.688;2022-12-07T13:25:54;6.50;80.70
55785;DHT22;41709;52.536;5.688;2022-12-07T13:28:23;6.40;80.70
55785;DHT22;41709;52.536;5.688;2022-12-07T13:31:09;6.40;80.60
55785;DHT22;41709;52.536;5.688;2022-12-07T13:33:36;6.50;80.50
55785;DHT22;41709;52.536;5.688;2022-12-07T13:36:02;6.50;80.40
55785;DHT22;41709;52.536;5.688;2022-12-07T13:38:35;6.50;80.50
55785;DHT22;41709;52.536;5.688;2022-12-07T13:41:23;6.50;80.70
55785;DHT22;41709;52.536;5.688;2022-12-07T13:43:51;6.50;81.00
55785;DHT22;41709;52.536;5.688;2022-12-07T13:46:21;6.60;80.70
55785;DHT22;41709;52.536;5.688;2022-12-07T13:48:50;6.50;80.60
55785;DHT22;41709;52.536;5.688;2022-12-07T13:51:26;6.50;81.00
55785;DHT22;41709;52.536;5.688;2022-12-07T13:54:00;6.50;80.70
55785;DHT22;41709;52.536;5.688;2022-12-07T13:56:32;6.50;80.20
55785;DHT22;41709;52.536;5.688;2022-12-07T13:58:58;6.40;79.80
55785;DHT22;41709;52.536;5.688;2022-12-07T14:01:24;6.40;80.10
55785;DHT22;41709;52.536;5.688;2022-12-07T14:03:50;6.20;80.00
55785;DHT22;41709;52.536;5.688;2022-12-07T14:06:17;6.20;80.40
55785;DHT22;41709;52.536;5.688;2022-12-07T14:08:45;6.20;80.10
55785;DHT22;41709;52.536;5.688;2022-12-07T14:11:18;6.20;80.40
55785;DHT22;41709;52.536;5.688;2022-12-07T14:16:32;6.10;81.00
55785;DHT22;41709;52.536;5.688;2022-12-07T14:18:59;6.20;81.30
55785;DHT22;41709;52.536;5.688;2022-12-07T14:21:30;6.10;81.50
55785;DHT22;41709;52.536;5.688;2022-12-07T14:24:16;6.10;81.90
55785;DHT22;41709;52.536;5.688;2022-12-07T14:26:49;6.00;82.70
55785;DHT22;41709;52.536;5.688;2022-12-07T14:29:22;5.90;83.00
55785;DHT22;41709;52.536;5.688;2022-12-07T14:31:54;5.80;83.40
55785;DHT22;41709;52.536;5.688;2022-12-07T14:34:23;5.80;83.80
55785;DHT22;41709;52.536;5.688;2022-12-07T14:36:49;5.70;84.10
55785;DHT22;41709;52.536;5.688;2022-12-07T14:39:15;5.60;84.80
55785;DHT22;41709;52.536;5.688;2022-12-07T14:41:41;5.60;85.00
55785;DHT22;41709;52.536;5.688;2022-12-07T14:44:21;5.50;85.40
55785;DHT22;41709;52.536;5.688;2022-12-07T14:46:48;5.50;85.40
55785;DHT22;41709;52.536;5.688;2022-12-07T14:49:14;5.60;85.40
55785;DHT22;41709;52.536;5.688;2022-12-07T14:51:40;5.60;85.60
55785;DHT22;41709;52.536;5.688;2022-12-07T14:54:14;5.60;85.80
55785;DHT22;41709;52.536;5.688;2022-12-07T14:56:41;5.60;86.10
55785;DHT22;41709;52.536;5.688;2022-12-07T14:59:07;5.60;86.90
55785;DHT22;41709;52.536;5.688;2022-12-07T15:01:32;5.60;86.40
55785;DHT22;41709;52.536;5.688;2022-12-07T15:03:58;5.50;86.70
55785;DHT22;41709;52.536;5.688;2022-12-07T15:06:24;5.40;86.80
55785;DHT22;41709;52.536;5.688;2022-12-07T15:08:49;5.40;87.00
55785;DHT22;41709;52.536;5.688;2022-12-07T15:11:16;5.40;87.10
55785;DHT22;41709;52.536;5.688;2022-12-07T15:13:42;5.40;86.70
55785;DHT22;41709;52.536;5.688;2022-12-07T15:16:26;5.40;86.60
55785;DHT22;41709;52.536;5.688;2022-12-07T15:18:52;5.40;86.60
55785;DHT22;41709;52.536;5.688;2022-12-07T15:21:17;5.30;86.60
55785;DHT22;41709;52.536;5.688;2022-12-07T15:23:43;5.30;86.20
55785;DHT22;41709;52.536;5.688;2022-12-07T15:26:10;5.30;86.20
55785;DHT22;41709;52.536;5.688;2022-12-07T15:28:36;5.20;86.50
55785;DHT22;41709;52.536;5.688;2022-12-07T15:31:02;5.20;86.20
55785;DHT22;41709;52.536;5.688;2022-12-07T15:33:27;5.10;86.40
55785;DHT22;41709;52.536;5.688;2022-12-07T15:35:53;5.10;86.50
55785;DHT22;41709;52.536;5.688;2022-12-07T15:38:19;5.00;86.40
55785;DHT22;41709;52.536;5.688;2022-12-07T15:40:46;5.00;86.50
55785;DHT22;41709;52.536;5.688;2022-12-07T15:43:12;4.90;86.30
55785;DHT22;41709;52.536;5.688;2022-12-07T15:45:57;4.90;86.10
55785;DHT22;41709;52.536;5.688;2022-12-07T15:48:22;4.90;86.30
55785;DHT22;41709;52.536;5.688;2022-12-07T15:50:48;4.80;86.90
55785;DHT22;41709;52.536;5.688;2022-12-07T15:53:14;4.80;87.00
55785;DHT22;41709;52.536;5.688;2022-12-07T15:55:40;4.70;87.00
55785;DHT22;41709;52.536;5.688;2022-12-07T15:58:06;4.70;87.30
55785;DHT22;41709;52.536;5.688;2022-12-07T16:00:31;4.70;87.50
55785;DHT22;41709;52.536;5.688;2022-12-07T16:02:57;4.70;87.70
55785;DHT22;41709;52.536;5.688;2022-12-07T16:05:23;4.70;87.80
55785;DHT22;41709;52.536;5.688;2022-12-07T16:07:48;4.80;88.00
55785;DHT22;41709;52.536;5.688;2022-12-07T16:10:14;4.70;87.90
55785;DHT22;41709;52.536;5.688;2022-12-07T16:12:40;4.70;87.90
55785;DHT22;41709;52.536;5.688;2022-12-07T16:15:06;4.70;88.10
55785;DHT22;41709;52.536;5.688;2022-12-07T16:17:31;4.70;88.10
55785;DHT22;41709;52.536;5.688;2022-12-07T16:19:57;4.80;88.20
55785;DHT22;41709;52.536;5.688;2022-12-07T16:22:23;4.80;88.20
55785;DHT22;41709;52.536;5.688;2022-12-07T16:24:49;4.80;88.10
55785;DHT22;41709;52.536;5.688;2022-12-07T16:27:14;4.90;87.70
55785;DHT22;41709;52.536;5.688;2022-12-07T16:29:40;5.00;87.30
55785;DHT22;41709;52.536;5.688;2022-12-07T16:32:05;5.00;86.60
55785;DHT22;41709;52.536;5.688;2022-12-07T16:34:31;5.10;86.10
55785;DHT22;41709;52.536;5.688;2022-12-07T16:36:57;5.10;85.30
55785;DHT22;41709;52.536;5.688;2022-12-07T16:39:22;5.20;85.10
55785;DHT22;41709;52.536;5.688;2022-12-07T16:41:48;5.20;84.60
55785;DHT22;41709;52.536;5.688;2022-12-07T16:44:13;5.20;84.40
55785;DHT22;41709;52.536;5.688;2022-12-07T16:46:40;5.20;84.20
55785;DHT22;41709;52.536;5.688;2022-12-07T16:49:05;5.30;84.30
55785;DHT22;41709;52.536;5.688;2022-12-07T16:51:31;5.30;84.30
55785;DHT22;41709;52.536;5.688;2022-12-07T16:53:59;5.30;84.30
55785;DHT22;41709;52.536;5.688;2022-12-07T16:56:25;5.20;84.30
55785;DHT22;41709;52.536;5.688;2022-12-07T16:58:51;5.20;84.40
55785;DHT22;41709;52.536;5.688;2022-12-07T17:01:19;5.20;84.60
55785;DHT22;41709;52.536;5.688;2022-12-07T17:03:45;5.10;84.70
55785;DHT22;41709;52.536;5.688;2022-12-07T17:06:16;5.10;84.90
55785;DHT22;41709;52.536;5.688;2022-12-07T17:08:43;5.00;84.80
55785;DHT22;41709;52.536;5.688;2022-12-07T17:11:17;5.00;84.70
55785;DHT22;41709;52.536;5.688;2022-12-07T17:13:43;5.00;84.70
55785;DHT22;41709;52.536;5.688;2022-12-07T17:16:28;4.90;84.80
55785;DHT22;41709;52.536;5.688;2022-12-07T17:18:54;4.90;85.20
55785;DHT22;41709;52.536;5.688;2022-12-07T17:21:20;4.90;85.20
55785;DHT22;41709;52.536;5.688;2022-12-07T17:23:46;4.80;85.20
55785;DHT22;41709;52.536;5.688;2022-12-07T17:26:23;4.80;85.30
55785;DHT22;41709;52.536;5.688;2022-12-07T17:28:49;4.80;85.40
55785;DHT22;41709;52.536;5.688;2022-12-07T17:31:17;4.80;85.50
55785;DHT22;41709;52.536;5.688;2022-12-07T17:33:43;4.70;85.40
55785;DHT22;41709;52.536;5.688;2022-12-07T17:36:17;4.70;85.40
55785;DHT22;41709;52.536;5.688;2022-12-07T17:38:43;4.70;85.70
55785;DHT22;41709;52.536;5.688;2022-12-07T17:41:14;4.60;86.10
55785;DHT22;41709;52.536;5.688;2022-12-07T17:44:05;4.60;86.30
55785;DHT22;41709;52.536;5.688;2022-12-07T17:46:31;4.60;87.00
55785;DHT22;41709;52.536;5.688;2022-12-07T17:48:57;4.60;86.10
55785;DHT22;41709;52.536;5.688;2022-12-07T17:51:23;4.60;85.80
55785;DHT22;41709;52.536;5.688;2022-12-07T17:54:08;4.50;85.70
55785;DHT22;41709;52.536;5.688;2022-12-07T17:56:34;4.50;85.60
55785;DHT22;41709;52.536;5.688;2022-12-07T17:59:00;4.50;85.70
55785;DHT22;41709;52.536;5.688;2022-12-07T18:01:25;4.40;85.70
55785;DHT22;41709;52.536;5.688;2022-12-07T18:03:51;4.40;85.90
55785;DHT22;41709;52.536;5.688;2022-12-07T18:06:17;4.40;86.10